sensor_id;sensor_type;location;lat;lon;timestamp;pressure;altitude;pressure_sealevel;temperature;humidity
62164;BME280;48149;51.132;7.178;2023-03-26T00:00:20;97874.88;;;14.14;nan
62164;BME280;48149;51.132;7.178;2023-03-26T00:02:45;97870.72;;;14.23;nan
62164;BME280;48149;51.132;7.178;2023-03-26T00:05:10;97869.94;;;14.69;nan
62164;BME280;48149;51.132;7.178;2023-03-26T00:07:38;97880.84;;;14.41;nan
62164;BME280;48149;51.132;7.178;2023-03-26T00:10:04;97874.00;;;15.02;nan
62164;BME280;48149;51.132;7.178;2023-03-26T00:12:29;97869.75;;;13.97;nan
62164;BME280;48149;51.132;7.178;2023-03-26T00:14:54;97874.38;;;14.59;nan
62164;BME280;48149;51.132;7.178;2023-03-26T00:17:20;97876.19;;;14.53;nan
62164;BME280;48149;51.132;7.178;2023-03-26T00:19:45;97877.41;;;14.35;nan
62164;BME280;48149;51.132;7.178;2023-03-26T00:22:10;97874.94;;;15.88;nan
62164;BME280;48149;51.132;7.178;2023-03-26T00:24:38;97880.25;;;17.42;nan
62164;BME280;48149;51.132;7.178;2023-03-26T00:27:04;97883.94;;;15.72;nan
62164;BME280;48149;51.132;7.178;2023-03-26T00:29:29;97881.81;;;13.93;nan
62164;BME280;48149;51.132;7.178;2023-03-26T00:31:57;97875.56;;;17.29;nan
62164;BME280;48149;51.132;7.178;2023-03-26T00:34:22;97871.63;;;18.28;nan
62164;BME280;48149;51.132;7.178;2023-03-26T00:36:48;97872.16;;;14.35;nan
62164;BME280;48149;51.132;7.178;2023-03-26T00:39:18;97869.00;;;16.52;nan
62164;BME280;48149;51.132;7.178;2023-03-26T00:41:43;97870.31;;;14.41;nan
62164;BME280;48149;51.132;7.178;2023-03-26T00:44:09;97869.94;;;14.69;nan
62164;BME280;48149;51.132;7.178;2023-03-26T00:46:34;97862.34;;;14.78;nan
62164;BME280;48149;51.132;7.178;2023-03-26T00:49:00;97864.31;;;13.72;nan
62164;BME280;48149;51.132;7.178;2023-03-26T00:51:27;97863.03;;;14.16;nan
62164;BME280;48149;51.132;7.178;2023-03-26T00:53:53;97862.25;;;14.58;nan
62164;BME280;48149;51.132;7.178;2023-03-26T00:56:19;97864.06;;;14.52;nan
62164;BME280;48149;51.132;7.178;2023-03-26T00:58:44;97858.34;;;14.75;nan
62164;BME280;48149;51.132;7.178;2023-03-26T01:01:14;97860.47;;;14.73;nan
62164;BME280;48149;51.132;7.178;2023-03-26T01:03:40;97851.41;;;14.49;nan
62164;BME280;48149;51.132;7.178;2023-03-26T01:06:07;97847.53;;;14.15;nan
62164;BME280;48149;51.132;7.178;2023-03-26T01:11:06;97845.75;;;14.82;nan
62164;BME280;48149;51.132;7.178;2023-03-26T01:13:38;97833.28;;;14.16;nan
62164;BME280;48149;51.132;7.178;2023-03-26T01:16:05;97822.19;;;15.53;nan
62164;BME280;48149;51.132;7.178;2023-03-26T01:18:34;97834.78;;;15.21;nan
62164;BME280;48149;51.132;7.178;2023-03-26T01:21:05;97822.97;;;15.69;nan
62164;BME280;48149;51.132;7.178;2023-03-26T01:26:07;97814.63;;;17.78;nan
62164;BME280;48149;51.132;7.178;2023-03-26T01:28:35;97824.16;;;16.37;nan
62164;BME280;48149;51.132;7.178;2023-03-26T01:31:11;97813.44;;;15.73;nan
62164;BME280;48149;51.132;7.178;2023-03-26T01:33:44;97805.00;;;15.81;nan
62164;BME280;48149;51.132;7.178;2023-03-26T01:36:28;97805.34;;;14.57;nan
62164;BME280;48149;51.132;7.178;2023-03-26T01:39:07;97807.84;;;14.93;nan
62164;BME280;48149;51.132;7.178;2023-03-26T01:41:58;97799.13;;;14.21;nan
62164;BME280;48149;51.132;7.178;2023-03-26T01:44:33;97804.38;;;14.83;nan
62164;BME280;48149;51.132;7.178;2023-03-26T01:47:02;97796.06;;;16.61;nan
62164;BME280;48149;51.132;7.178;2023-03-26T01:49:28;97790.09;;;16.89;nan
62164;BME280;48149;51.132;7.178;2023-03-26T01:51:54;97785.06;;;16.98;nan
62164;BME280;48149;51.132;7.178;2023-03-26T01:54:20;97787.00;;;16.08;nan
62164;BME280;48149;51.132;7.178;2023-03-26T02:04:24;97773.44;;;16.30;nan
62164;BME280;48149;51.132;7.178;2023-03-26T02:06:52;97766.19;;;17.43;nan
62164;BME280;48149;51.132;7.178;2023-03-26T02:09:23;97766.84;;;17.64;nan
62164;BME280;48149;51.132;7.178;2023-03-26T02:11:51;97761.34;;;18.32;nan
62164;BME280;48149;51.132;7.178;2023-03-26T02:14:17;97762.25;;;18.22;nan
62164;BME280;48149;51.132;7.178;2023-03-26T02:16:43;97755.00;;;17.18;nan
62164;BME280;48149;51.132;7.178;2023-03-26T02:19:11;97750.94;;;17.30;nan
62164;BME280;48149;51.132;7.178;2023-03-26T02:21:39;97746.28;;;18.08;nan
62164;BME280;48149;51.132;7.178;2023-03-26T02:24:05;97745.59;;;17.98;nan
62164;BME280;48149;51.132;7.178;2023-03-26T02:26:31;97742.28;;;17.25;nan
62164;BME280;48149;51.132;7.178;2023-03-26T02:28:57;97739.00;;;17.95;nan
62164;BME280;48149;51.132;7.178;2023-03-26T02:31:22;97728.13;;;17.73;nan
62164;BME280;48149;51.132;7.178;2023-03-26T02:33:50;97741.72;;;15.66;nan
62164;BME280;48149;51.132;7.178;2023-03-26T02:36:16;97732.50;;;16.37;nan
62164;BME280;48149;51.132;7.178;2023-03-26T02:38:43;97722.84;;;17.39;nan
62164;BME280;48149;51.132;7.178;2023-03-26T02:41:08;97721.25;;;17.96;nan
62164;BME280;48149;51.132;7.178;2023-03-26T02:43:33;97718.63;;;18.38;nan
62164;BME280;48149;51.132;7.178;2023-03-26T02:45:59;97709.81;;;17.48;nan
62164;BME280;48149;51.132;7.178;2023-03-26T02:48:24;97712.66;;;17.56;nan
62164;BME280;48149;51.132;7.178;2023-03-26T02:50:49;97705.09;;;17.40;nan
62164;BME280;48149;51.132;7.178;2023-03-26T02:53:18;97708.22;;;16.30;nan
62164;BME280;48149;51.132;7.178;2023-03-26T02:55:43;97708.75;;;16.32;nan
62164;BME280;48149;51.132;7.178;2023-03-26T02:58:08;97697.69;;;16.79;nan
62164;BME280;48149;51.132;7.178;2023-03-26T03:00:33;97694.22;;;16.35;nan
62164;BME280;48149;51.132;7.178;2023-03-26T03:02:59;97685.38;;;16.98;nan
62164;BME280;48149;51.132;7.178;2023-03-26T03:05:28;97689.34;;;15.98;nan
62164;BME280;48149;51.132;7.178;2023-03-26T03:07:55;97680.97;;;16.89;nan
62164;BME280;48149;51.132;7.178;2023-03-26T03:10:22;97678.47;;;17.60;nan
62164;BME280;48149;51.132;7.178;2023-03-26T03:12:47;97672.44;;;17.78;nan
62164;BME280;48149;51.132;7.178;2023-03-26T03:15:12;97675.41;;;17.19;nan
62164;BME280;48149;51.132;7.178;2023-03-26T03:17:38;97676.19;;;17.20;nan
62164;BME280;48149;51.132;7.178;2023-03-26T03:20:04;97666.28;;;18.06;nan
62164;BME280;48149;51.132;7.178;2023-03-26T03:22:33;97672.03;;;17.71;nan
62164;BME280;48149;51.132;7.178;2023-03-26T03:24:58;97663.78;;;17.15;nan
62164;BME280;48149;51.132;7.178;2023-03-26T03:27:23;97665.28;;;16.59;nan
62164;BME280;48149;51.132;7.178;2023-03-26T03:29:50;97658.78;;;16.85;nan
62164;BME280;48149;51.132;7.178;2023-03-26T03:32:17;97665.38;;;15.89;nan
62164;BME280;48149;51.132;7.178;2023-03-26T03:34:42;97652.63;;;16.56;nan
62164;BME280;48149;51.132;7.178;2023-03-26T03:37:08;97646.56;;;16.06;nan
62164;BME280;48149;51.132;7.178;2023-03-26T03:39:33;97641.00;;;16.90;nan
62164;BME280;48149;51.132;7.178;2023-03-26T03:41:58;97638.22;;;17.63;nan
62164;BME280;48149;51.132;7.178;2023-03-26T03:44:23;97651.19;;;17.07;nan
62164;BME280;48149;51.132;7.178;2023-03-26T03:46:48;97641.16;;;17.04;nan
62164;BME280;48149;51.132;7.178;2023-03-26T03:49:17;97628.09;;;16.84;nan
62164;BME280;48149;51.132;7.178;2023-03-26T03:51:43;97636.13;;;17.08;nan
62164;BME280;48149;51.132;7.178;2023-03-26T03:54:08;97633.34;;;17.46;nan
62164;BME280;48149;51.132;7.178;2023-03-26T03:56:33;97629.94;;;16.49;nan
62164;BME280;48149;51.132;7.178;2023-03-26T03:58:59;97627.63;;;17.63;nan
62164;BME280;48149;51.132;7.178;2023-03-26T04:01:25;97619.94;;;17.14;nan
62164;BME280;48149;51.132;7.178;2023-03-26T04:03:50;97622.91;;;17.08;nan
62164;BME280;48149;51.132;7.178;2023-03-26T04:06:15;97613.84;;;17.14;nan
62164;BME280;48149;51.132;7.178;2023-03-26T04:08:43;97619.38;;;17.41;nan
62164;BME280;48149;51.132;7.178;2023-03-26T04:11:08;97615.38;;;16.91;nan
62164;BME280;48149;51.132;7.178;2023-03-26T04:13:33;97611.78;;;17.34;nan
62164;BME280;48149;51.132;7.178;2023-03-26T04:15:59;97601.03;;;16.29;nan
62164;BME280;48149;51.132;7.178;2023-03-26T04:18:24;97596.09;;;16.13;nan
62164;BME280;48149;51.132;7.178;2023-03-26T04:20:50;97595.47;;;16.98;nan
62164;BME280;48149;51.132;7.178;2023-03-26T04:23:16;97593.56;;;16.36;nan
62164;BME280;48149;51.132;7.178;2023-03-26T04:25:52;97581.78;;;16.19;nan
62164;BME280;48149;51.132;7.178;2023-03-26T04:28:22;97577.03;;;16.21;nan
62164;BME280;48149;51.132;7.178;2023-03-26T04:30:50;97580.91;;;17.25;nan
62164;BME280;48149;51.132;7.178;2023-03-26T04:33:17;97577.09;;;16.83;nan
62164;BME280;48149;51.132;7.178;2023-03-26T04:35:45;97566.19;;;16.90;nan
62164;BME280;48149;51.132;7.178;2023-03-26T04:38:12;97563.38;;;16.81;nan
62164;BME280;48149;51.132;7.178;2023-03-26T04:40:40;97568.81;;;16.66;nan
62164;BME280;48149;51.132;7.178;2023-03-26T04:43:07;97566.53;;;16.83;nan
62164;BME280;48149;51.132;7.178;2023-03-26T04:45:32;97547.53;;;16.47;nan
62164;BME280;48149;51.132;7.178;2023-03-26T04:47:58;97555.47;;;17.05;nan
62164;BME280;48149;51.132;7.178;2023-03-26T04:50:24;97546.69;;;16.57;nan
62164;BME280;48149;51.132;7.178;2023-03-26T04:52:50;97540.75;;;16.70;nan
62164;BME280;48149;51.132;7.178;2023-03-26T04:55:22;97540.34;;;16.53;nan
62164;BME280;48149;51.132;7.178;2023-03-26T04:57:49;97533.00;;;17.55;nan
62164;BME280;48149;51.132;7.178;2023-03-26T05:00:17;97536.28;;;17.18;nan
62164;BME280;48149;51.132;7.178;2023-03-26T05:02:45;97536.41;;;16.12;nan
62164;BME280;48149;51.132;7.178;2023-03-26T05:05:14;97523.63;;;16.91;nan
62164;BME280;48149;51.132;7.178;2023-03-26T05:07:39;97524.22;;;16.83;nan
62164;BME280;48149;51.132;7.178;2023-03-26T05:10:06;97513.91;;;16.53;nan
62164;BME280;48149;51.132;7.178;2023-03-26T05:12:32;97510.31;;;16.39;nan
62164;BME280;48149;51.132;7.178;2023-03-26T05:14:57;97508.34;;;15.87;nan
62164;BME280;48149;51.132;7.178;2023-03-26T05:17:22;97509.59;;;15.99;nan
62164;BME280;48149;51.132;7.178;2023-03-26T05:19:48;97509.00;;;15.69;nan
62164;BME280;48149;51.132;7.178;2023-03-26T05:22:13;97507.53;;;15.91;nan
62164;BME280;48149;51.132;7.178;2023-03-26T05:24:39;97505.41;;;15.39;nan
62164;BME280;48149;51.132;7.178;2023-03-26T05:27:04;97504.97;;;16.49;nan
62164;BME280;48149;51.132;7.178;2023-03-26T05:29:30;97502.19;;;16.69;nan
62164;BME280;48149;51.132;7.178;2023-03-26T05:31:55;97502.88;;;15.14;nan
62164;BME280;48149;51.132;7.178;2023-03-26T05:34:20;97505.88;;;14.67;nan
62164;BME280;48149;51.132;7.178;2023-03-26T05:36:50;97488.44;;;13.80;nan
62164;BME280;48149;51.132;7.178;2023-03-26T05:39:15;97489.25;;;14.87;nan
62164;BME280;48149;51.132;7.178;2023-03-26T05:41:40;97470.75;;;15.61;nan
62164;BME280;48149;51.132;7.178;2023-03-26T05:44:06;97488.44;;;14.91;nan
62164;BME280;48149;51.132;7.178;2023-03-26T05:46:31;97480.06;;;15.38;nan
62164;BME280;48149;51.132;7.178;2023-03-26T05:48:56;97472.69;;;14.61;nan
62164;BME280;48149;51.132;7.178;2023-03-26T05:51:21;97477.97;;;14.56;nan
62164;BME280;48149;51.132;7.178;2023-03-26T05:53:49;97473.94;;;14.89;nan
62164;BME280;48149;51.132;7.178;2023-03-26T05:56:15;97465.00;;;14.90;nan
62164;BME280;48149;51.132;7.178;2023-03-26T05:58:40;97460.66;;;15.24;nan
62164;BME280;48149;51.132;7.178;2023-03-26T06:01:10;97462.28;;;15.69;nan
62164;BME280;48149;51.132;7.178;2023-03-26T06:03:40;97448.75;;;16.72;nan
62164;BME280;48149;51.132;7.178;2023-03-26T06:06:17;97446.53;;;15.93;nan
62164;BME280;48149;51.132;7.178;2023-03-26T06:08:47;97447.06;;;16.29;nan
62164;BME280;48149;51.132;7.178;2023-03-26T06:11:16;97439.16;;;16.52;nan
62164;BME280;48149;51.132;7.178;2023-03-26T06:13:42;97440.00;;;15.85;nan
62164;BME280;48149;51.132;7.178;2023-03-26T06:16:08;97432.59;;;15.43;nan
62164;BME280;48149;51.132;7.178;2023-03-26T06:18:34;97429.41;;;15.90;nan
62164;BME280;48149;51.132;7.178;2023-03-26T06:20:59;97433.72;;;15.76;nan
62164;BME280;48149;51.132;7.178;2023-03-26T06:23:25;97434.75;;;16.43;nan
62164;BME280;48149;51.132;7.178;2023-03-26T06:25:50;97429.78;;;14.56;nan
62164;BME280;48149;51.132;7.178;2023-03-26T06:28:15;97436.38;;;14.58;nan
62164;BME280;48149;51.132;7.178;2023-03-26T06:30:41;97434.78;;;14.62;nan
62164;BME280;48149;51.132;7.178;2023-03-26T06:33:06;97428.50;;;14.13;nan
62164;BME280;48149;51.132;7.178;2023-03-26T06:35:32;97433.75;;;13.82;nan
62164;BME280;48149;51.132;7.178;2023-03-26T06:37:58;97430.34;;;14.17;nan
62164;BME280;48149;51.132;7.178;2023-03-26T06:40:23;97423.75;;;14.10;nan
62164;BME280;48149;51.132;7.178;2023-03-26T06:42:48;97420.47;;;14.88;nan
62164;BME280;48149;51.132;7.178;2023-03-26T06:45:14;97417.56;;;14.90;nan
62164;BME280;48149;51.132;7.178;2023-03-26T06:47:39;97422.72;;;14.36;nan
62164;BME280;48149;51.132;7.178;2023-03-26T06:50:05;97405.81;;;15.70;nan
62164;BME280;48149;51.132;7.178;2023-03-26T06:52:30;97421.66;;;14.27;nan
62164;BME280;48149;51.132;7.178;2023-03-26T06:54:55;97410.81;;;14.54;nan
62164;BME280;48149;51.132;7.178;2023-03-26T06:57:21;97405.81;;;14.47;nan
62164;BME280;48149;51.132;7.178;2023-03-26T06:59:46;97406.09;;;14.40;nan
62164;BME280;48149;51.132;7.178;2023-03-26T07:02:11;97399.13;;;16.12;nan
62164;BME280;48149;51.132;7.178;2023-03-26T07:04:36;97397.81;;;14.82;nan
62164;BME280;48149;51.132;7.178;2023-03-26T07:07:02;97389.25;;;14.31;nan
62164;BME280;48149;51.132;7.178;2023-03-26T07:09:27;97385.34;;;13.99;nan
62164;BME280;48149;51.132;7.178;2023-03-26T07:11:54;97382.69;;;14.24;nan
62164;BME280;48149;51.132;7.178;2023-03-26T07:14:20;97382.13;;;14.32;nan
62164;BME280;48149;51.132;7.178;2023-03-26T07:16:45;97381.34;;;13.20;nan
62164;BME280;48149;51.132;7.178;2023-03-26T07:19:10;97381.69;;;13.79;nan
62164;BME280;48149;51.132;7.178;2023-03-26T07:21:36;97371.69;;;13.76;nan
62164;BME280;48149;51.132;7.178;2023-03-26T07:24:01;97371.09;;;14.30;nan
62164;BME280;48149;51.132;7.178;2023-03-26T07:26:33;97365.91;;;13.79;nan
62164;BME280;48149;51.132;7.178;2023-03-26T07:29:05;97366.38;;;14.17;nan
62164;BME280;48149;51.132;7.178;2023-03-26T07:31:38;97356.03;;;14.61;nan
62164;BME280;48149;51.132;7.178;2023-03-26T07:34:21;97353.97;;;14.32;nan
62164;BME280;48149;51.132;7.178;2023-03-26T07:36:58;97350.75;;;14.61;nan
62164;BME280;48149;51.132;7.178;2023-03-26T07:46:57;97341.19;;;13.70;nan
62164;BME280;48149;51.132;7.178;2023-03-26T07:49:24;97329.97;;;14.54;nan
62164;BME280;48149;51.132;7.178;2023-03-26T07:51:51;97327.56;;;14.63;nan
62164;BME280;48149;51.132;7.178;2023-03-26T07:54:16;97329.50;;;14.27;nan
62164;BME280;48149;51.132;7.178;2023-03-26T07:56:47;97331.16;;;13.98;nan
62164;BME280;48149;51.132;7.178;2023-03-26T07:59:28;97321.53;;;14.57;nan
62164;BME280;48149;51.132;7.178;2023-03-26T08:04:46;97318.94;;;14.52;nan
62164;BME280;48149;51.132;7.178;2023-03-26T08:17:22;97308.56;;;16.82;nan
62164;BME280;48149;51.132;7.178;2023-03-26T08:23:00;97309.44;;;15.78;nan
62164;BME280;48149;51.132;7.178;2023-03-26T08:25:33;97313.50;;;15.26;nan
62164;BME280;48149;51.132;7.178;2023-03-26T08:30:30;97310.16;;;15.16;nan
62164;BME280;48149;51.132;7.178;2023-03-26T08:32:56;97309.66;;;15.53;nan
62164;BME280;48149;51.132;7.178;2023-03-26T08:35:25;97303.91;;;15.02;nan
62164;BME280;48149;51.132;7.178;2023-03-26T08:37:51;97300.56;;;14.37;nan
62164;BME280;48149;51.132;7.178;2023-03-26T08:40:30;97302.31;;;15.78;nan
62164;BME280;48149;51.132;7.178;2023-03-26T08:43:07;97303.91;;;15.02;nan
62164;BME280;48149;51.132;7.178;2023-03-26T08:56:17;97298.06;;;15.10;nan
62164;BME280;48149;51.132;7.178;2023-03-26T09:16:47;97293.63;;;15.05;nan
62164;BME280;48149;51.132;7.178;2023-03-26T09:21:49;97276.88;;;14.22;nan
62164;BME280;48149;51.132;7.178;2023-03-26T09:24:36;97285.28;;;14.29;nan
62164;BME280;48149;51.132;7.178;2023-03-26T09:32:18;97277.19;;;14.10;nan
62164;BME280;48149;51.132;7.178;2023-03-26T09:50:26;97263.97;;;14.84;nan
62164;BME280;48149;51.132;7.178;2023-03-26T10:00:43;97254.44;;;13.45;nan
62164;BME280;48149;51.132;7.178;2023-03-26T10:10:56;97251.06;;;15.22;nan
62164;BME280;48149;51.132;7.178;2023-03-26T10:23:23;97231.03;;;14.38;nan
62164;BME280;48149;51.132;7.178;2023-03-26T10:31:25;97233.47;;;14.19;nan
62164;BME280;48149;51.132;7.178;2023-03-26T10:36:54;97217.84;;;14.87;nan
62164;BME280;48149;51.132;7.178;2023-03-26T10:46:51;97200.84;;;15.89;nan
62164;BME280;48149;51.132;7.178;2023-03-26T10:52:08;97189.34;;;16.65;nan
62164;BME280;48149;51.132;7.178;2023-03-26T10:54:50;97183.38;;;15.70;nan
62164;BME280;48149;51.132;7.178;2023-03-26T10:59:43;97177.03;;;15.47;nan
62164;BME280;48149;51.132;7.178;2023-03-26T11:05:39;97173.19;;;15.34;nan
62164;BME280;48149;51.132;7.178;2023-03-26T11:12:31;97165.94;;;15.21;nan
62164;BME280;48149;51.132;7.178;2023-03-26T11:22:30;97170.69;;;16.94;nan
62164;BME280;48149;51.132;7.178;2023-03-26T11:25:17;97159.16;;;15.68;nan
62164;BME280;48149;51.132;7.178;2023-03-26T11:32:57;97157.22;;;15.97;nan
62164;BME280;48149;51.132;7.178;2023-03-26T11:35:25;97157.00;;;14.50;nan
62164;BME280;48149;51.132;7.178;2023-03-26T11:37:55;97152.78;;;15.16;nan
62164;BME280;48149;51.132;7.178;2023-03-26T11:40:24;97152.72;;;14.92;nan
62164;BME280;48149;51.132;7.178;2023-03-26T11:42:53;97152.16;;;14.18;nan
62164;BME280;48149;51.132;7.178;2023-03-26T11:45:20;97145.19;;;14.42;nan
62164;BME280;48149;51.132;7.178;2023-03-26T11:50:46;97139.75;;;15.30;nan
62164;BME280;48149;51.132;7.178;2023-03-26T11:53:17;97136.84;;;15.31;nan
62164;BME280;48149;51.132;7.178;2023-03-26T11:55:45;97140.13;;;15.42;nan
62164;BME280;48149;51.132;7.178;2023-03-26T11:58:23;97145.56;;;16.40;nan
62164;BME280;48149;51.132;7.178;2023-03-26T12:00:51;97133.34;;;15.65;nan
62164;BME280;48149;51.132;7.178;2023-03-26T12:03:18;97142.28;;;15.40;nan
62164;BME280;48149;51.132;7.178;2023-03-26T12:05:50;97134.13;;;14.79;nan
62164;BME280;48149;51.132;7.178;2023-03-26T12:08:22;97140.94;;;15.90;nan
62164;BME280;48149;51.132;7.178;2023-03-26T12:10:58;97137.53;;;16.08;nan
62164;BME280;48149;51.132;7.178;2023-03-26T12:13:33;97136.97;;;16.11;nan
62164;BME280;48149;51.132;7.178;2023-03-26T12:16:11;97133.97;;;16.60;nan
62164;BME280;48149;51.132;7.178;2023-03-26T12:18:37;97137.66;;;16.59;nan
62164;BME280;48149;51.132;7.178;2023-03-26T12:21:05;97129.19;;;16.94;nan
62164;BME280;48149;51.132;7.178;2023-03-26T12:23:33;97130.25;;;17.39;nan
62164;BME280;48149;51.132;7.178;2023-03-26T12:26:18;97125.09;;;17.75;nan
62164;BME280;48149;51.132;7.178;2023-03-26T12:28:45;97127.59;;;18.21;nan
62164;BME280;48149;51.132;7.178;2023-03-26T12:31:11;97126.81;;;17.93;nan
62164;BME280;48149;51.132;7.178;2023-03-26T12:33:42;97131.34;;;17.66;nan
62164;BME280;48149;51.132;7.178;2023-03-26T12:36:21;97132.81;;;16.98;nan
62164;BME280;48149;51.132;7.178;2023-03-26T12:38:49;97131.00;;;17.40;nan
62164;BME280;48149;51.132;7.178;2023-03-26T12:41:16;97126.91;;;18.16;nan
62164;BME280;48149;51.132;7.178;2023-03-26T12:43:48;97128.63;;;17.71;nan
62164;BME280;48149;51.132;7.178;2023-03-26T12:46:33;97126.38;;;17.64;nan
62164;BME280;48149;51.132;7.178;2023-03-26T12:49:03;97124.25;;;16.88;nan
62164;BME280;48149;51.132;7.178;2023-03-26T12:53:59;97122.34;;;17.80;nan
62164;BME280;48149;51.132;7.178;2023-03-26T12:56:35;97132.13;;;17.39;nan
62164;BME280;48149;51.132;7.178;2023-03-26T13:01:33;97129.28;;;17.03;nan
62164;BME280;48149;51.132;7.178;2023-03-26T13:04:14;97128.81;;;16.69;nan
62164;BME280;48149;51.132;7.178;2023-03-26T13:06:59;97128.44;;;17.08;nan
62164;BME280;48149;51.132;7.178;2023-03-26T13:09:35;97136.59;;;15.80;nan
62164;BME280;48149;51.132;7.178;2023-03-26T13:19:51;97139.22;;;17.25;nan
62164;BME280;48149;51.132;7.178;2023-03-26T13:27:49;97143.69;;;18.25;nan
62164;BME280;48149;51.132;7.178;2023-03-26T13:30:28;97140.91;;;18.30;nan
62164;BME280;48149;51.132;7.178;2023-03-26T13:33:19;97146.88;;;19.15;nan
62164;BME280;48149;51.132;7.178;2023-03-26T13:36:00;97144.44;;;19.50;nan
62164;BME280;48149;51.132;7.178;2023-03-26T13:38:52;97146.13;;;19.46;nan
62164;BME280;48149;51.132;7.178;2023-03-26T13:41:37;97141.38;;;19.65;nan
62164;BME280;48149;51.132;7.178;2023-03-26T13:46:52;97145.56;;;18.10;nan
62164;BME280;48149;51.132;7.178;2023-03-26T13:49:40;97144.59;;;17.79;nan
62164;BME280;48149;51.132;7.178;2023-03-26T13:52:16;97150.50;;;16.47;nan
62164;BME280;48149;51.132;7.178;2023-03-26T13:57:34;97153.47;;;16.03;nan
62164;BME280;48149;51.132;7.178;2023-03-26T14:00:04;97157.44;;;16.62;nan
62164;BME280;48149;51.132;7.178;2023-03-26T14:02:38;97154.53;;;15.26;nan
62164;BME280;48149;51.132;7.178;2023-03-26T14:05:26;97159.03;;;15.78;nan
62164;BME280;48149;51.132;7.178;2023-03-26T14:07:59;97160.56;;;17.15;nan
62164;BME280;48149;51.132;7.178;2023-03-26T14:10:26;97171.81;;;16.13;nan
62164;BME280;48149;51.132;7.178;2023-03-26T14:18:19;97168.88;;;15.72;nan
62164;BME280;48149;51.132;7.178;2023-03-26T14:23:50;97177.53;;;17.27;nan
62164;BME280;48149;51.132;7.178;2023-03-26T14:26:23;97178.47;;;17.36;nan
62164;BME280;48149;51.132;7.178;2023-03-26T14:41:27;97199.09;;;17.21;nan
62164;BME280;48149;51.132;7.178;2023-03-26T14:54:07;97198.47;;;16.54;nan
62164;BME280;48149;51.132;7.178;2023-03-26T15:01:27;97205.69;;;17.96;nan
62164;BME280;48149;51.132;7.178;2023-03-26T15:25:30;97232.91;;;16.25;nan
62164;BME280;48149;51.132;7.178;2023-03-26T15:30:48;97242.41;;;16.69;nan
62164;BME280;48149;51.132;7.178;2023-03-26T15:33:31;97247.56;;;16.79;nan
62164;BME280;48149;51.132;7.178;2023-03-26T15:46:30;97255.50;;;15.60;nan
62164;BME280;48149;51.132;7.178;2023-03-26T15:54:28;97277.59;;;17.39;nan
62164;BME280;48149;51.132;7.178;2023-03-26T15:57:07;97271.63;;;16.77;nan
62164;BME280;48149;51.132;7.178;2023-03-26T16:04:51;97286.84;;;15.95;nan
62164;BME280;48149;51.132;7.178;2023-03-26T16:15:14;97292.84;;;14.51;nan
62164;BME280;48149;51.132;7.178;2023-03-26T16:20:32;97303.31;;;15.10;nan
62164;BME280;48149;51.132;7.178;2023-03-26T16:22:58;97312.50;;;14.73;nan
62164;BME280;48149;51.132;7.178;2023-03-26T16:28:05;97315.25;;;15.02;nan
62164;BME280;48149;51.132;7.178;2023-03-26T16:30:33;97328.00;;;13.85;nan
62164;BME280;48149;51.132;7.178;2023-03-26T16:33:14;97326.19;;;13.66;nan
62164;BME280;48149;51.132;7.178;2023-03-26T16:38:13;97323.69;;;34.02;nan
62164;BME280;48149;51.132;7.178;2023-03-26T16:40:49;97332.69;;;14.24;nan
62164;BME280;48149;51.132;7.178;2023-03-26T16:43:37;97343.75;;;15.00;nan
62164;BME280;48149;51.132;7.178;2023-03-26T16:48:54;97348.72;;;15.02;nan
62164;BME280;48149;51.132;7.178;2023-03-26T17:00:15;97374.00;;;15.08;nan
62164;BME280;48149;51.132;7.178;2023-03-26T17:04:54;97381.56;;;14.60;nan
62164;BME280;48149;51.132;7.178;2023-03-26T17:08:06;97390.97;;;16.08;nan
62164;BME280;48149;51.132;7.178;2023-03-26T17:10:15;97392.31;;;15.33;nan
62164;BME280;48149;51.132;7.178;2023-03-26T17:12:47;97400.44;;;16.14;nan
62164;BME280;48149;51.132;7.178;2023-03-26T17:20:31;97424.03;;;13.83;nan
62164;BME280;48149;51.132;7.178;2023-03-26T17:25:36;97412.53;;;15.47;nan
62164;BME280;48149;51.132;7.178;2023-03-26T17:33:34;97437.19;;;15.23;nan
62164;BME280;48149;51.132;7.178;2023-03-26T17:41:04;97456.81;;;17.89;nan
62164;BME280;48149;51.132;7.178;2023-03-26T17:46:01;97470.81;;;14.72;nan
62164;BME280;48149;51.132;7.178;2023-03-26T17:48:29;97472.34;;;13.47;nan
62164;BME280;48149;51.132;7.178;2023-03-26T17:51:04;97481.13;;;14.08;nan
62164;BME280;48149;51.132;7.178;2023-03-26T17:53:37;97477.38;;;13.53;nan
62164;BME280;48149;51.132;7.178;2023-03-26T17:56:13;97485.88;;;15.89;nan
62164;BME280;48149;51.132;7.178;2023-03-26T17:58:40;97486.88;;;15.55;nan
62164;BME280;48149;51.132;7.178;2023-03-26T18:03:35;97505.09;;;15.51;nan
62164;BME280;48149;51.132;7.178;2023-03-26T18:06:05;97519.31;;;14.71;nan
62164;BME280;48149;51.132;7.178;2023-03-26T18:08:37;97516.94;;;14.59;nan
62164;BME280;48149;51.132;7.178;2023-03-26T18:16:26;97537.41;;;13.81;nan
62164;BME280;48149;51.132;7.178;2023-03-26T18:18:53;97544.84;;;14.85;nan
62164;BME280;48149;51.132;7.178;2023-03-26T18:21:29;97544.06;;;14.75;nan
62164;BME280;48149;51.132;7.178;2023-03-26T18:23:56;97549.94;;;15.46;nan
62164;BME280;48149;51.132;7.178;2023-03-26T18:26:23;97558.59;;;15.67;nan
62164;BME280;48149;51.132;7.178;2023-03-26T18:29:07;97556.88;;;13.90;nan
62164;BME280;48149;51.132;7.178;2023-03-26T18:31:33;97562.47;;;16.23;nan
62164;BME280;48149;51.132;7.178;2023-03-26T18:34:03;97570.19;;;16.53;nan
62164;BME280;48149;51.132;7.178;2023-03-26T18:36:30;97574.06;;;17.24;nan
62164;BME280;48149;51.132;7.178;2023-03-26T18:38:59;97584.78;;;13.86;nan
62164;BME280;48149;51.132;7.178;2023-03-26T18:43:51;97589.09;;;14.53;nan
62164;BME280;48149;51.132;7.178;2023-03-26T18:46:16;97595.81;;;15.65;nan
62164;BME280;48149;51.132;7.178;2023-03-26T18:48:41;97591.13;;;13.96;nan
62164;BME280;48149;51.132;7.178;2023-03-26T18:51:07;97601.09;;;13.88;nan
62164;BME280;48149;51.132;7.178;2023-03-26T18:53:37;97613.13;;;16.74;nan
62164;BME280;48149;51.132;7.178;2023-03-26T18:56:48;97621.94;;;16.16;nan
62164;BME280;48149;51.132;7.178;2023-03-26T18:58:50;97635.88;;;13.07;nan